Time;durP1;ratioP1;P1;durP2;ratioP2;P2;SDS_P1;SDS_P2;PMS_P1;PMS_P2;Temp;Humidity;BMP_temperature;BMP_pressure;BME280_temperature;BME280_humidity;BME280_pressure;Samples;Min_cycle;Max_cycle;Signal;HPM_P1;HPM_P2
2023/12/17 00:02:11;;;;;;;6.57;3.55;;;12.30;59.30;;;;;;4988492;28;20058;-47
2023/12/17 00:04:38;;;;;;;7.32;3.47;;;12.30;59.20;;;;;;4988525;28;20058;-50
2023/12/17 00:07:05;;;;;;;5.80;3.33;;;12.30;59.20;;;;;;4984744;28;20050;-49
2023/12/17 00:09:32;;;;;;;3.97;3.13;;;12.30;59.20;;;;;;4989803;28;20054;-46
2023/12/17 00:11:59;;;;;;;6.50;3.90;;;12.30;59.20;;;;;;4988141;28;20090;-49
2023/12/17 00:14:26;;;;;;;5.93;3.47;;;12.30;59.20;;;;;;4990068;28;20050;-49
2023/12/17 00:16:54;;;;;;;7.00;3.85;;;12.30;59.30;;;;;;4986039;28;20070;-46
2023/12/17 00:19:22;;;;;;;6.93;3.22;;;12.30;59.30;;;;;;4986277;28;20054;-47
2023/12/17 00:21:49;;;;;;;6.05;3.25;;;12.30;59.30;;;;;;4987145;28;20065;-47
2023/12/17 00:24:17;;;;;;;6.75;3.90;;;12.30;59.40;;;;;;4988336;28;21472;-46
2023/12/17 00:26:44;;;;;;;5.95;3.80;;;12.40;59.40;;;;;;4987643;28;20050;-46
2023/12/17 00:29:11;;;;;;;8.65;4.03;;;12.40;59.40;;;;;;4986592;28;20046;-46
2023/12/17 00:31:38;;;;;;;6.70;3.90;;;12.40;59.40;;;;;;4984575;28;20042;-47
2023/12/17 00:34:06;;;;;;;7.35;3.58;;;12.40;59.40;;;;;;4988897;28;20084;-49
2023/12/17 00:36:34;;;;;;;9.73;3.92;;;12.40;59.30;;;;;;4985775;28;20061;-48
2023/12/17 00:39:02;;;;;;;10.20;4.13;;;12.40;59.30;;;;;;4984904;28;20495;-48
2023/12/17 00:41:29;;;;;;;6.95;4.05;;;12.40;59.20;;;;;;4988869;28;20047;-48
2023/12/17 00:43:56;;;;;;;8.90;4.53;;;12.50;59.20;;;;;;4986716;28;20502;-45
2023/12/17 00:46:23;;;;;;;6.15;3.97;;;12.40;59.10;;;;;;4983909;28;20069;-41
2023/12/17 00:48:51;;;;;;;8.13;4.15;;;12.40;59.20;;;;;;4982616;28;20065;-48
2023/12/17 00:51:19;;;;;;;9.43;4.07;;;12.40;59.20;;;;;;4988773;28;20050;-48
2023/12/17 00:53:47;;;;;;;9.80;4.78;;;12.40;59.20;;;;;;4983970;28;20065;-50
2023/12/17 00:56:15;;;;;;;6.88;4.10;;;12.40;59.10;;;;;;4982153;28;20062;-45
2023/12/17 00:58:42;;;;;;;8.15;4.78;;;12.40;59.00;;;;;;4984016;28;20054;-40
2023/12/17 01:01:09;;;;;;;9.68;4.70;;;12.40;59.00;;;;;;4986930;28;20375;-44
2023/12/17 01:03:36;;;;;;;8.93;4.38;;;12.40;59.00;;;;;;4988338;28;20046;-37
2023/12/17 01:06:04;;;;;;;6.25;3.78;;;12.40;59.10;;;;;;4983337;28;20058;-36
2023/12/17 01:08:31;;;;;;;6.93;3.50;;;12.40;59.20;;;;;;4989152;28;20050;-37
2023/12/17 01:11:00;;;;;;;5.75;3.85;;;12.40;59.20;;;;;;4988141;28;20053;-37
2023/12/17 01:13:27;;;;;;;11.68;4.35;;;12.40;59.20;;;;;;4986243;28;20525;-36
2023/12/17 01:15:54;;;;;;;6.72;4.25;;;12.40;59.20;;;;;;4987364;28;20063;-36
2023/12/17 01:18:21;;;;;;;7.88;4.13;;;12.40;59.70;;;;;;4986529;28;20058;-37
2023/12/17 01:20:48;;;;;;;7.28;4.40;;;12.40;59.20;;;;;;4987175;28;20054;-37
2023/12/17 01:23:16;;;;;;;6.82;4.35;;;12.40;59.30;;;;;;4987907;28;20054;-36
2023/12/17 01:25:43;;;;;;;8.48;4.32;;;12.40;59.30;;;;;;4984540;28;20513;-37
2023/12/17 01:28:11;;;;;;;11.25;4.57;;;12.40;59.30;;;;;;4982295;28;20054;-36
2023/12/17 01:30:39;;;;;;;9.32;4.45;;;12.40;59.30;;;;;;4985510;28;20431;-36
2023/12/17 01:33:06;;;;;;;8.52;4.50;;;12.40;59.30;;;;;;4987924;28;20058;-36
2023/12/17 01:35:33;;;;;;;10.38;4.50;;;12.40;59.30;;;;;;4986723;28;20073;-36
2023/12/17 01:38:00;;;;;;;10.05;4.15;;;12.40;59.20;;;;;;4983503;28;20504;-37
2023/12/17 01:40:28;;;;;;;9.70;3.95;;;12.40;59.20;;;;;;4987326;28;20076;-37
2023/12/17 01:42:56;;;;;;;9.50;5.07;;;12.40;59.30;;;;;;4984006;28;20059;-37
2023/12/17 01:45:25;;;;;;;6.50;3.60;;;12.40;59.30;;;;;;4986483;28;20058;-36
2023/12/17 01:47:52;;;;;;;7.38;4.22;;;12.40;59.30;;;;;;4987190;28;20615;-36
2023/12/17 01:50:19;;;;;;;7.65;4.38;;;12.40;59.30;;;;;;4984354;28;20553;-36
2023/12/17 01:52:47;;;;;;;6.63;4.55;;;12.40;59.30;;;;;;4983395;28;20061;-36
2023/12/17 01:55:15;;;;;;;9.50;4.50;;;12.40;59.30;;;;;;4984283;28;20058;-36
2023/12/17 01:57:42;;;;;;;6.97;4.38;;;12.40;59.40;;;;;;4979983;28;20054;-37
2023/12/17 02:00:10;;;;;;;7.85;4.15;;;12.40;59.40;;;;;;4984768;28;20065;-37
2023/12/17 02:02:39;;;;;;;9.88;5.03;;;12.40;59.40;;;;;;4985147;28;20050;-36
2023/12/17 02:05:08;;;;;;;7.18;4.72;;;12.40;59.40;;;;;;4984003;28;20050;-37
2023/12/17 02:07:35;;;;;;;7.75;4.63;;;12.40;59.40;;;;;;4980829;28;20065;-36
2023/12/17 02:10:02;;;;;;;9.05;5.10;;;12.40;59.40;;;;;;4987143;28;20517;-36
2023/12/17 02:12:30;;;;;;;9.15;5.53;;;12.40;59.30;;;;;;4979153;28;20069;-36
2023/12/17 02:14:57;;;;;;;9.82;4.97;;;12.40;59.40;;;;;;4981327;28;20502;-42
2023/12/17 02:17:28;;;;;;;7.10;4.93;;;12.40;59.40;;;;;;4983445;28;20058;-43
2023/12/17 02:19:57;;;;;;;10.48;4.75;;;12.40;59.40;;;;;;4985556;28;20398;-42
2023/12/17 02:22:25;;;;;;;13.10;5.45;;;12.40;59.40;;;;;;4986916;28;20065;-44
2023/12/17 02:24:54;;;;;;;13.07;5.45;;;12.40;59.50;;;;;;4984008;28;20054;-48
2023/12/17 02:27:23;;;;;;;11.23;5.22;;;12.40;59.50;;;;;;4985136;28;20062;-43
2023/12/17 02:29:50;;;;;;;13.25;4.75;;;12.30;59.50;;;;;;4982762;28;20061;-50
2023/12/17 02:32:18;;;;;;;9.35;4.90;;;12.40;59.60;;;;;;4986018;28;20061;-46
2023/12/17 02:34:45;;;;;;;8.80;4.43;;;12.40;59.60;;;;;;4983180;28;20047;-45
2023/12/17 02:37:12;;;;;;;12.43;5.75;;;12.30;59.70;;;;;;4984051;28;20051;-45
2023/12/17 02:39:40;;;;;;;13.68;5.57;;;12.30;59.70;;;;;;4985726;28;20057;-47
2023/12/17 02:42:08;;;;;;;13.50;5.53;;;12.30;59.70;;;;;;4984633;28;20537;-47
2023/12/17 02:44:36;;;;;;;15.07;5.35;;;12.30;59.70;;;;;;4984282;28;20054;-44
2023/12/17 02:47:03;;;;;;;9.90;5.20;;;12.30;59.70;;;;;;4980884;28;20054;-46
2023/12/17 02:49:31;;;;;;;13.88;5.70;;;12.30;59.80;;;;;;4983204;28;20065;-43
2023/12/17 02:51:59;;;;;;;12.98;5.47;;;12.30;59.70;;;;;;4988179;28;20412;-42
2023/12/17 02:54:26;;;;;;;12.85;5.93;;;12.30;59.70;;;;;;4983899;28;20050;-45
2023/12/17 02:56:53;;;;;;;14.77;5.95;;;12.30;59.80;;;;;;4983195;28;20050;-47
2023/12/17 02:59:22;;;;;;;11.63;5.20;;;12.30;59.80;;;;;;4984246;28;20058;-43
2023/12/17 03:01:49;;;;;;;12.68;5.63;;;12.30;59.80;;;;;;4986463;28;20046;-41
2023/12/17 03:04:16;;;;;;;11.15;5.78;;;12.30;59.80;;;;;;4985175;28;20050;-48
2023/12/17 03:06:43;;;;;;;11.15;6.00;;;12.30;59.80;;;;;;4985791;28;20058;-46
2023/12/17 03:09:11;;;;;;;12.70;5.78;;;12.30;59.80;;;;;;4982188;28;20411;-45
2023/12/17 03:11:39;;;;;;;14.52;5.60;;;12.30;59.80;;;;;;4985906;28;20585;-49
2023/12/17 03:14:06;;;;;;;14.45;6.10;;;12.30;59.80;;;;;;4983552;28;20414;-45
2023/12/17 03:16:34;;;;;;;16.83;5.65;;;12.30;59.80;;;;;;4981262;28;20418;-44
2023/12/17 03:19:02;;;;;;;12.43;4.85;;;12.20;59.70;;;;;;4983149;28;20065;-45
2023/12/17 03:21:29;;;;;;;13.40;5.35;;;12.20;59.80;;;;;;4982070;28;20046;-47
2023/12/17 03:23:56;;;;;;;12.73;5.47;;;12.20;59.80;;;;;;4984254;28;20050;-46
2023/12/17 03:26:23;;;;;;;10.05;4.93;;;12.20;59.90;;;;;;4984493;28;20051;-50
2023/12/17 03:28:51;;;;;;;13.38;6.05;;;12.20;59.90;;;;;;4986080;28;20077;-49
2023/12/17 03:31:18;;;;;;;12.75;5.18;;;12.20;59.90;;;;;;4983160;28;20418;-43
2023/12/17 03:33:47;;;;;;;11.05;4.78;;;12.20;60.00;;;;;;4981356;28;20063;-46
2023/12/17 03:36:15;;;;;;;13.85;5.25;;;12.20;60.00;;;;;;4982132;28;20737;-44
2023/12/17 03:38:43;;;;;;;13.68;5.32;;;12.10;60.00;;;;;;4983915;28;20058;-44
2023/12/17 03:41:20;;;;;;;11.93;5.22;;;12.20;60.00;;;;;;4981011;28;20061;-49
2023/12/17 03:43:50;;;;;;;10.73;4.60;;;12.10;60.00;;;;;;4984561;28;20081;-50
2023/12/17 03:46:17;;;;;;;13.95;5.03;;;12.10;60.00;;;;;;4981018;28;20419;-46
2023/12/17 03:48:46;;;;;;;14.88;5.13;;;12.10;60.00;;;;;;4984672;28;20720;-44
2023/12/17 03:51:13;;;;;;;8.77;5.22;;;12.10;60.10;;;;;;4983310;28;20050;-45
2023/12/17 03:53:41;;;;;;;10.00;4.93;;;12.10;60.10;;;;;;4984027;28;20050;-41
2023/12/17 03:56:09;;;;;;;13.25;5.18;;;12.10;60.20;;;;;;4986077;28;20061;-44
2023/12/17 03:58:36;;;;;;;11.75;4.63;;;12.10;60.30;;;;;;4985524;28;20061;-48
2023/12/17 04:01:05;;;;;;;13.98;4.95;;;12.00;60.20;;;;;;4985344;28;20406;-49
2023/12/17 04:03:32;;;;;;;14.38;4.35;;;12.00;60.30;;;;;;4984610;28;20062;-46
2023/12/17 04:06:02;;;;;;;11.02;4.40;;;12.00;60.30;;;;;;4986660;28;20057;-50
2023/12/17 04:08:29;;;;;;;14.23;5.00;;;12.00;60.40;;;;;;4987619;28;20422;-47
2023/12/17 04:10:56;;;;;;;9.18;4.57;;;12.00;60.40;;;;;;4988380;28;20127;-50
2023/12/17 04:13:24;;;;;;;11.18;5.47;;;12.00;60.50;;;;;;4986921;28;20054;-49
2023/12/17 04:15:51;;;;;;;14.98;4.55;;;12.00;60.50;;;;;;4984073;28;20062;-46
2023/12/17 04:18:18;;;;;;;9.25;4.38;;;12.00;60.60;;;;;;4988467;28;20058;-47
2023/12/17 04:20:45;;;;;;;11.00;4.57;;;12.00;60.70;;;;;;4986725;28;20058;-43
2023/12/17 04:23:15;;;;;;;9.60;4.85;;;12.00;60.70;;;;;;4988110;28;20054;-45
2023/12/17 04:25:42;;;;;;;11.30;4.40;;;12.00;60.70;;;;;;4987154;28;20058;-47
2023/12/17 04:28:09;;;;;;;11.15;5.05;;;12.00;60.80;;;;;;4986196;28;20050;-49
2023/12/17 04:30:36;;;;;;;10.88;4.88;;;12.00;60.80;;;;;;4984310;28;20540;-49
2023/12/17 04:33:04;;;;;;;10.35;4.22;;;12.00;60.80;;;;;;4985318;28;20046;-49
2023/12/17 04:35:31;;;;;;;11.32;5.35;;;12.00;60.70;;;;;;4986205;28;20050;-48
2023/12/17 04:37:58;;;;;;;8.60;4.47;;;12.00;60.70;;;;;;4987018;28;20513;-47
2023/12/17 04:40:27;;;;;;;8.35;3.63;;;12.00;60.70;;;;;;4985795;28;20070;-45
2023/12/17 04:42:54;;;;;;;8.02;3.85;;;12.00;60.60;;;;;;4984430;28;20050;-46
2023/12/17 04:45:21;;;;;;;9.52;3.88;;;12.00;60.50;;;;;;4987575;28;20065;-50
2023/12/17 04:47:48;;;;;;;11.15;4.05;;;12.00;60.50;;;;;;4987582;28;20062;-50
2023/12/17 04:50:16;;;;;;;8.73;3.75;;;12.00;60.50;;;;;;4984376;28;20074;-50
2023/12/17 04:52:43;;;;;;;7.97;4.05;;;12.00;60.40;;;;;;4987520;28;20050;-42
2023/12/17 04:55:10;;;;;;;7.97;4.00;;;12.00;60.40;;;;;;4987977;28;20062;-44
2023/12/17 04:57:38;;;;;;;7.75;4.28;;;12.00;60.50;;;;;;4982299;28;20077;-50
2023/12/17 05:00:08;;;;;;;17.58;5.95;;;12.00;60.50;;;;;;4988281;28;20069;-44
2023/12/17 05:02:35;;;;;;;7.47;4.78;;;12.00;60.60;;;;;;4986992;28;20054;-45
2023/12/17 05:05:02;;;;;;;8.50;3.95;;;12.00;60.60;;;;;;4984037;28;20054;-47
2023/12/17 05:07:29;;;;;;;6.97;4.00;;;12.00;60.60;;;;;;4987682;28;20061;-45
2023/12/17 05:09:57;;;;;;;9.30;3.97;;;12.00;60.60;;;;;;4986002;28;20055;-46
2023/12/17 05:12:24;;;;;;;6.68;3.67;;;12.00;60.60;;;;;;4984393;28;20057;-44
2023/12/17 05:14:52;;;;;;;7.60;3.67;;;12.00;60.60;;;;;;4986375;28;20055;-47
2023/12/17 05:17:20;;;;;;;7.03;3.58;;;12.00;60.60;;;;;;4980574;28;20054;-46
2023/12/17 05:19:47;;;;;;;5.65;3.08;;;12.00;60.60;;;;;;4987797;28;20061;-49
2023/12/17 05:22:14;;;;;;;7.30;3.47;;;12.00;60.50;;;;;;4987584;28;20050;-42
2023/12/17 05:24:41;;;;;;;5.68;3.70;;;12.00;60.40;;;;;;4982144;28;20046;-49
2023/12/17 05:27:09;;;;;;;7.95;3.85;;;12.00;60.40;;;;;;4985426;28;20066;-44
2023/12/17 05:29:36;;;;;;;7.60;3.63;;;12.10;60.50;;;;;;4985845;28;20068;-43
2023/12/17 05:32:06;;;;;;;6.90;3.40;;;12.10;60.50;;;;;;4983703;28;20066;-46
2023/12/17 05:34:33;;;;;;;8.30;3.53;;;12.00;60.40;;;;;;4986123;28;20109;-48
2023/12/17 05:37:00;;;;;;;18.15;9.07;;;12.10;60.40;;;;;;4984569;28;20406;-46
2023/12/17 05:39:28;;;;;;;9.95;4.53;;;12.10;60.40;;;;;;4983831;28;20474;-48
2023/12/17 05:41:55;;;;;;;9.02;3.88;;;12.00;60.30;;;;;;4985330;28;20054;-42
2023/12/17 05:44:23;;;;;;;7.22;3.80;;;12.00;60.20;;;;;;4984326;28;20061;-41
2023/12/17 05:46:50;;;;;;;13.10;3.65;;;12.10;60.30;;;;;;4984811;28;20047;-48
2023/12/17 05:49:19;;;;;;;6.85;3.42;;;12.10;60.20;;;;;;4987373;28;20077;-46
2023/12/17 05:51:46;;;;;;;9.73;3.30;;;12.10;60.10;;;;;;4989460;28;20065;-49
2023/12/17 05:54:13;;;;;;;8.35;3.42;;;12.10;60.10;;;;;;4988629;28;20051;-45
2023/12/17 05:56:42;;;;;;;4.75;3.30;;;12.10;60.10;;;;;;4990720;28;20062;-45
2023/12/17 05:59:09;;;;;;;7.43;3.30;;;12.10;60.00;;;;;;4973323;28;20062;-46
2023/12/17 06:01:37;;;;;;;6.95;3.15;;;12.10;60.00;;;;;;4966683;28;20054;-47
2023/12/17 06:04:04;;;;;;;6.70;3.47;;;12.10;60.00;;;;;;4965201;28;20046;-46
2023/12/17 06:06:33;;;;;;;4.50;2.50;;;12.10;60.10;;;;;;4964336;28;20051;-48
2023/12/17 06:09:00;;;;;;;4.65;2.90;;;12.00;60.00;;;;;;4963072;28;20061;-46
2023/12/17 06:11:27;;;;;;;6.45;2.58;;;12.00;60.00;;;;;;4968834;28;20054;-44
2023/12/17 06:13:54;;;;;;;4.95;3.00;;;12.00;60.00;;;;;;4970157;28;20051;-41
2023/12/17 06:16:22;;;;;;;6.30;3.28;;;12.10;60.00;;;;;;4966448;28;20065;-50
2023/12/17 06:18:50;;;;;;;5.35;2.92;;;12.00;59.90;;;;;;4971227;28;20051;-47
2023/12/17 06:21:24;;;;;;;5.57;3.28;;;12.10;59.90;;;;;;4960076;28;20396;-48
2023/12/17 06:23:57;;;;;;;5.00;3.10;;;12.00;59.80;;;;;;4966065;28;20054;-46
2023/12/17 06:26:24;;;;;;;4.15;2.78;;;12.00;59.80;;;;;;4970105;28;20076;-46
2023/12/17 06:28:52;;;;;;;5.40;3.08;;;12.00;59.80;;;;;;4965461;28;20062;-45
2023/12/17 06:31:19;;;;;;;4.80;3.20;;;12.00;59.80;;;;;;4966149;28;20061;-49
2023/12/17 06:33:47;;;;;;;6.15;2.92;;;12.00;59.80;;;;;;4961867;28;20376;-44
2023/12/17 06:36:14;;;;;;;4.50;3.47;;;12.00;59.90;;;;;;4965565;28;20066;-40
2023/12/17 06:38:41;;;;;;;7.72;3.40;;;12.00;59.90;;;;;;4963827;28;20058;-49
2023/12/17 06:41:10;;;;;;;5.03;3.00;;;12.00;59.80;;;;;;4966990;28;20058;-45
2023/12/17 06:43:37;;;;;;;5.47;3.30;;;12.00;59.80;;;;;;4965643;28;20051;-44
2023/12/17 06:46:06;;;;;;;3.85;3.00;;;12.00;59.70;;;;;;4965472;28;20061;-37
2023/12/17 06:48:33;;;;;;;5.32;3.03;;;12.00;59.60;;;;;;4964994;28;21052;-36
2023/12/17 06:51:01;;;;;;;4.15;3.05;;;12.00;59.70;;;;;;4967186;28;20066;-37
2023/12/17 06:53:29;;;;;;;5.88;3.17;;;12.00;59.70;;;;;;4965607;28;20050;-36
2023/12/17 06:55:56;;;;;;;5.22;3.33;;;11.90;59.60;;;;;;4968092;28;20055;-37
2023/12/17 06:58:24;;;;;;;4.63;3.20;;;11.90;59.70;;;;;;4967301;28;20063;-36
2023/12/17 07:00:52;;;;;;;6.45;3.25;;;11.90;59.70;;;;;;4965715;28;20050;-37
2023/12/17 07:03:19;;;;;;;4.05;3.17;;;11.90;59.70;;;;;;4965628;28;20059;-36
2023/12/17 07:05:46;;;;;;;4.13;3.03;;;11.90;59.70;;;;;;4967485;28;20058;-37
2023/12/17 07:08:13;;;;;;;12.30;6.40;;;11.90;59.70;;;;;;4965617;28;20059;-37
2023/12/17 07:10:41;;;;;;;9.65;4.43;;;11.90;59.70;;;;;;4962157;28;20502;-36
2023/12/17 07:13:08;;;;;;;5.88;3.25;;;11.90;59.70;;;;;;4964957;28;20054;-36
2023/12/17 07:15:36;;;;;;;6.18;3.25;;;11.90;59.70;;;;;;4964193;28;20051;-36
2023/12/17 07:18:04;;;;;;;5.55;3.50;;;11.90;59.70;;;;;;4966007;28;20503;-36
2023/12/17 07:20:31;;;;;;;5.80;3.90;;;11.90;59.70;;;;;;4967245;28;20073;-36
2023/12/17 07:22:58;;;;;;;7.15;4.00;;;11.90;59.70;;;;;;4964664;28;20059;-36
2023/12/17 07:25:26;;;;;;;7.88;3.88;;;11.90;59.70;;;;;;4965577;28;20054;-37
2023/12/17 07:27:54;;;;;;;8.18;4.38;;;11.80;59.70;;;;;;4962619;28;20055;-37
2023/12/17 07:30:21;;;;;;;6.93;4.53;;;11.90;59.80;;;;;;4965491;28;20066;-36
2023/12/17 07:32:50;;;;;;;7.97;4.82;;;11.90;59.80;;;;;;4969133;28;20054;-37
2023/12/17 07:35:17;;;;;;;9.45;4.63;;;11.90;59.80;;;;;;4969745;28;20062;-37
2023/12/17 07:37:44;;;;;;;7.82;4.28;;;11.90;59.80;;;;;;4967829;28;20062;-37
2023/12/17 07:40:12;;;;;;;7.43;4.32;;;11.90;59.80;;;;;;4965110;28;20051;-37
2023/12/17 07:42:39;;;;;;;6.85;4.47;;;11.90;59.80;;;;;;4962647;28;20070;-37
2023/12/17 07:45:08;;;;;;;5.53;4.13;;;11.90;59.70;;;;;;4964974;28;20046;-36
2023/12/17 07:47:36;;;;;;;8.05;4.22;;;11.80;59.70;;;;;;4961885;28;20483;-36
2023/12/17 07:50:05;;;;;;;5.60;3.80;;;11.90;59.70;;;;;;4967504;28;20055;-36
2023/12/17 07:52:33;;;;;;;6.80;4.32;;;11.80;59.70;;;;;;4962038;28;20403;-36
2023/12/17 07:55:01;;;;;;;6.57;4.25;;;11.80;59.70;;;;;;4970187;28;20599;-37
2023/12/17 07:57:28;;;;;;;5.70;4.00;;;11.80;59.70;;;;;;4967187;28;20058;-37
2023/12/17 07:59:56;;;;;;;6.25;4.00;;;11.80;59.70;;;;;;4967961;28;20062;-37
2023/12/17 08:02:23;;;;;;;5.63;3.92;;;11.80;59.70;;;;;;4965383;28;20491;-36
2023/12/17 08:04:51;;;;;;;5.88;3.83;;;11.80;59.70;;;;;;4962467;28;20058;-36
2023/12/17 08:07:20;;;;;;;5.93;3.78;;;11.80;59.70;;;;;;4968378;28;20523;-36
2023/12/17 08:09:47;;;;;;;6.72;3.88;;;11.80;59.70;;;;;;4969816;28;20506;-36
2023/12/17 08:12:16;;;;;;;5.07;3.65;;;11.80;59.60;;;;;;4973733;28;20085;-36
2023/12/17 08:14:43;;;;;;;5.68;3.67;;;11.80;59.60;;;;;;4964533;28;20047;-37
2023/12/17 08:17:10;;;;;;;5.40;3.42;;;11.80;59.60;;;;;;4966798;28;20491;-37
2023/12/17 08:19:38;;;;;;;4.22;3.15;;;11.80;59.60;;;;;;4968435;28;20499;-37
2023/12/17 08:22:06;;;;;;;5.35;3.50;;;11.80;59.50;;;;;;4969760;28;20507;-36
2023/12/17 08:24:34;;;;;;;4.30;3.25;;;11.80;59.50;;;;;;4968069;28;20042;-36
2023/12/17 08:27:02;;;;;;;4.75;3.50;;;11.80;59.50;;;;;;4968548;28;20055;-37
2023/12/17 08:29:30;;;;;;;5.88;3.63;;;11.70;59.40;;;;;;4969178;28;20065;-37
2023/12/17 08:31:57;;;;;;;4.78;3.17;;;11.70;59.40;;;;;;4970331;28;20050;-37
2023/12/17 08:34:27;;;;;;;5.68;3.65;;;11.70;59.40;;;;;;4966163;28;20534;-37
2023/12/17 08:36:54;;;;;;;5.47;3.85;;;11.70;59.40;;;;;;4965092;28;20063;-36
2023/12/17 08:39:23;;;;;;;5.95;3.63;;;11.70;59.50;;;;;;4967096;28;20303;-36
2023/12/17 08:41:52;;;;;;;3.95;3.17;;;11.70;59.40;;;;;;4967748;28;20050;-37
2023/12/17 08:44:22;;;;;;;3.97;3.35;;;11.70;59.40;;;;;;4963835;28;20059;-37
2023/12/17 08:46:49;;;;;;;4.28;3.28;;;11.70;59.40;;;;;;4967446;28;20503;-37
2023/12/17 08:49:17;;;;;;;6.53;4.30;;;11.70;59.50;;;;;;4966192;28;20065;-36
2023/12/17 08:51:45;;;;;;;7.40;3.72;;;11.60;59.40;;;;;;4966468;28;20063;-37
2023/12/17 08:54:13;;;;;;;6.00;3.83;;;11.60;59.40;;;;;;4963359;28;20428;-37
2023/12/17 08:56:40;;;;;;;4.47;3.38;;;11.60;59.50;;;;;;4964230;28;20066;-37
2023/12/17 08:59:09;;;;;;;6.15;4.00;;;11.60;59.50;;;;;;4961397;28;20054;-36
2023/12/17 09:01:37;;;;;;;6.65;4.40;;;11.60;59.50;;;;;;4968332;28;20051;-36
2023/12/17 09:04:05;;;;;;;4.38;3.33;;;11.60;59.50;;;;;;4967041;28;20062;-36
2023/12/17 09:06:32;;;;;;;5.72;3.55;;;11.60;59.50;;;;;;4962616;28;20060;-44
2023/12/17 09:08:59;;;;;;;6.13;3.65;;;11.60;59.50;;;;;;4968187;28;20069;-49
2023/12/17 09:11:27;;;;;;;6.40;4.00;;;11.60;59.50;;;;;;4967261;28;20043;-45
2023/12/17 09:13:54;;;;;;;5.05;3.60;;;11.60;59.40;;;;;;4961738;28;20057;-43
2023/12/17 09:16:23;;;;;;;5.88;3.90;;;11.60;59.40;;;;;;4966369;28;20050;-45
2023/12/17 09:18:50;;;;;;;5.35;4.00;;;11.60;59.50;;;;;;4967477;28;20407;-48
2023/12/17 09:21:18;;;;;;;7.50;4.60;;;11.60;59.50;;;;;;4965209;28;20097;-47
2023/12/17 09:23:45;;;;;;;7.00;4.63;;;11.60;59.50;;;;;;4967659;28;20416;-44
2023/12/17 09:26:12;;;;;;;8.13;4.70;;;11.60;59.60;;;;;;4968895;28;20495;-44
2023/12/17 09:28:40;;;;;;;7.60;4.47;;;11.60;59.60;;;;;;4961799;28;20542;-47
2023/12/17 09:31:08;;;;;;;9.13;4.43;;;11.70;59.60;;;;;;4964261;28;20522;-45
2023/12/17 09:33:37;;;;;;;6.32;4.13;;;11.70;59.50;;;;;;4967356;28;20055;-48
2023/12/17 09:36:05;;;;;;;5.70;4.15;;;11.70;59.40;;;;;;4965643;28;20059;-45
2023/12/17 09:38:32;;;;;;;5.22;3.70;;;11.70;59.40;;;;;;4964715;28;20058;-44
2023/12/17 09:40:59;;;;;;;7.20;4.40;;;11.70;59.40;;;;;;4968091;28;20051;-48
2023/12/17 09:43:27;;;;;;;4.45;3.70;;;11.70;59.40;;;;;;4964620;28;20059;-50
2023/12/17 09:45:54;;;;;;;6.70;4.30;;;11.70;59.40;;;;;;4966629;28;20047;-44
2023/12/17 09:48:23;;;;;;;7.72;4.10;;;11.70;59.40;;;;;;4966112;28;20130;-44
2023/12/17 09:50:52;;;;;;;7.82;4.28;;;11.70;59.40;;;;;;4967472;28;20065;-48
2023/12/17 09:53:19;;;;;;;6.15;4.13;;;11.70;59.30;;;;;;4963496;28;20055;-47
2023/12/17 09:55:46;;;;;;;5.53;3.78;;;11.70;59.30;;;;;;4964049;28;20073;-47
2023/12/17 09:58:13;;;;;;;28.98;13.48;;;11.70;59.30;;;;;;4961304;28;20062;-48
2023/12/17 10:00:42;;;;;;;21.10;10.15;;;11.70;59.30;;;;;;4961826;28;20058;-43
2023/12/17 10:03:12;;;;;;;10.10;5.50;;;11.70;59.30;;;;;;4956528;28;20062;-45
2023/12/17 10:05:40;;;;;;;9.40;4.40;;;11.70;59.20;;;;;;4964732;28;20055;-51
2023/12/17 10:08:08;;;;;;;7.90;4.63;;;11.70;59.20;;;;;;4960686;28;20054;-45
2023/12/17 10:10:36;;;;;;;6.05;4.22;;;11.70;59.20;;;;;;4964319;28;20058;-43
2023/12/17 10:13:03;;;;;;;10.45;4.53;;;11.80;59.30;;;;;;4962330;28;20511;-45
2023/12/17 10:15:36;;;;;;;9.07;5.00;;;11.70;59.30;;;;;;4963405;28;20055;-48
2023/12/17 10:18:04;;;;;;;12.13;5.30;;;11.80;59.30;;;;;;4965679;28;20538;-44
2023/12/17 10:20:31;;;;;;;10.05;5.38;;;11.80;59.20;;;;;;4964881;28;20062;-47
2023/12/17 10:23:00;;;;;;;11.65;5.13;;;11.80;59.10;;;;;;4962983;28;20636;-42
2023/12/17 10:25:29;;;;;;;8.77;4.85;;;11.80;59.10;;;;;;4964040;28;20055;-44
2023/12/17 10:27:58;;;;;;;10.50;4.88;;;11.80;59.10;;;;;;4962490;28;20054;-46
2023/12/17 10:30:30;;;;;;;12.00;5.13;;;11.80;59.10;;;;;;4966017;28;20062;-41
2023/12/17 10:32:59;;;;;;;7.40;4.75;;;11.80;59.10;;;;;;4963122;28;20059;-47
2023/12/17 10:35:27;;;;;;;7.10;4.95;;;11.80;59.10;;;;;;4963773;28;20054;-45
2023/12/17 10:37:59;;;;;;;10.30;4.82;;;11.80;59.20;;;;;;4966402;28;20050;-48
2023/12/17 10:40:29;;;;;;;9.50;4.72;;;11.80;59.20;;;;;;4959428;28;20058;-48
2023/12/17 10:42:57;;;;;;;10.68;4.88;;;11.80;59.10;;;;;;4962121;28;20475;-47
2023/12/17 10:45:26;;;;;;;12.27;4.90;;;11.90;59.10;;;;;;4966073;28;20043;-43
2023/12/17 10:47:56;;;;;;;7.32;4.85;;;11.80;59.00;;;;;;4959979;28;20051;-44
2023/12/17 10:50:25;;;;;;;7.68;5.00;;;11.80;59.00;;;;;;4963436;28;20340;-47
2023/12/17 10:52:52;;;;;;;7.38;4.45;;;11.90;59.00;;;;;;4966151;28;20050;-46
2023/12/17 10:55:22;;;;;;;7.32;4.25;;;11.90;59.00;;;;;;4964814;28;20076;-49
2023/12/17 10:57:56;;;;;;;15.82;4.90;;;11.90;59.00;;;;;;4963264;28;20092;-47
2023/12/17 11:00:29;;;;;;;5.72;4.50;;;11.90;59.00;;;;;;4964473;28;20059;-50
2023/12/17 11:03:00;;;;;;;7.43;4.43;;;11.90;59.00;;;;;;4964071;28;20054;-46
2023/12/17 11:05:27;;;;;;;6.32;4.22;;;11.90;59.00;;;;;;4961453;28;20057;-45
2023/12/17 11:07:55;;;;;;;7.90;4.25;;;11.90;59.00;;;;;;4964098;28;20057;-41
2023/12/17 11:10:24;;;;;;;8.80;4.50;;;11.90;59.00;;;;;;4966198;28;20388;-45
2023/12/17 11:12:53;;;;;;;8.40;4.43;;;12.00;59.20;;;;;;4962926;28;20443;-42
2023/12/17 11:15:22;;;;;;;7.90;4.97;;;12.00;59.10;;;;;;4964639;28;20046;-46
2023/12/17 11:17:53;;;;;;;8.20;5.05;;;12.00;59.10;;;;;;4961583;28;20051;-46
2023/12/17 11:20:20;;;;;;;9.40;4.88;;;12.00;59.00;;;;;;4965488;28;20065;-50
2023/12/17 11:22:48;;;;;;;6.68;4.40;;;12.00;59.00;;;;;;4964814;28;20058;-48
2023/12/17 11:25:16;;;;;;;6.50;4.40;;;12.00;59.10;;;;;;4962727;28;20062;-48
2023/12/17 11:27:46;;;;;;;7.43;4.50;;;12.00;59.10;;;;;;4961211;28;20450;-43
2023/12/17 11:30:34;;;;;;;5.45;3.97;;;12.00;59.10;;;;;;4962617;28;20054;-49
2023/12/17 11:33:02;;;;;;;5.80;3.95;;;12.00;59.10;;;;;;4966341;28;20050;-42
2023/12/17 11:35:32;;;;;;;8.02;4.47;;;12.00;59.10;;;;;;4965454;28;20675;-46
2023/12/17 11:37:59;;;;;;;9.10;4.40;;;12.00;59.00;;;;;;4961572;28;20051;-42
2023/12/17 11:40:27;;;;;;;11.13;4.75;;;12.10;59.10;;;;;;4966000;28;20415;-46
2023/12/17 11:43:02;;;;;;;9.82;5.05;;;12.10;59.10;;;;;;4960071;28;20058;-43
2023/12/17 11:45:36;;;;;;;6.25;4.45;;;12.10;59.10;;;;;;4963200;28;20066;-44
2023/12/17 11:48:10;;;;;;;8.52;4.90;;;12.10;59.10;;;;;;4963288;28;20055;-48
2023/12/17 11:50:46;;;;;;;10.15;5.55;;;12.10;59.10;;;;;;4964513;28;20066;-46
2023/12/17 11:53:14;;;;;;;10.15;5.35;;;12.00;59.10;;;;;;4966095;28;20047;-47
2023/12/17 11:55:46;;;;;;;10.35;5.45;;;12.10;59.10;;;;;;4965650;28;20410;-46
2023/12/17 11:58:15;;;;;;;12.25;5.40;;;12.10;59.00;;;;;;4964484;28;20055;-49
2023/12/17 12:01:00;;;;;;;11.60;5.30;;;12.00;58.90;;;;;;4969895;28;20051;-44
2023/12/17 12:03:28;;;;;;;7.25;5.22;;;12.00;58.90;;;;;;4960810;28;20062;-46
2023/12/17 12:05:58;;;;;;;8.48;4.97;;;12.00;58.80;;;;;;4964534;28;20047;-42
2023/12/17 12:08:25;;;;;;;11.60;5.95;;;12.00;58.80;;;;;;4962703;28;20050;-42
2023/12/17 12:10:53;;;;;;;16.45;6.05;;;12.00;58.80;;;;;;4962638;28;20047;-49
2023/12/17 12:13:21;;;;;;;9.55;5.45;;;12.00;58.80;;;;;;4962550;28;20055;-49
2023/12/17 12:15:49;;;;;;;10.85;6.13;;;12.00;58.80;;;;;;4965094;28;20051;-47
2023/12/17 12:18:20;;;;;;;8.90;5.38;;;12.00;58.80;;;;;;4968499;28;20050;-48
2023/12/17 12:20:49;;;;;;;11.13;5.97;;;11.90;58.80;;;;;;4970641;28;20407;-43
2023/12/17 12:23:16;;;;;;;12.02;6.15;;;11.90;58.80;;;;;;4970458;28;20055;-46
2023/12/17 12:25:44;;;;;;;11.20;6.15;;;11.90;58.90;;;;;;4970184;28;20062;-48
2023/12/17 12:28:17;;;;;;;11.73;5.97;;;11.90;58.90;;;;;;4969555;28;20050;-46
2023/12/17 12:30:45;;;;;;;13.13;6.57;;;11.90;58.90;;;;;;4965496;28;20055;-43
2023/12/17 12:33:17;;;;;;;14.35;6.35;;;11.90;58.90;;;;;;4970832;28;20066;-46
2023/12/17 12:35:46;;;;;;;10.05;5.72;;;11.90;59.00;;;;;;4970511;28;20427;-36
2023/12/17 12:38:24;;;;;;;11.73;6.03;;;11.80;59.00;;;;;;4969322;28;20047;-36
2023/12/17 12:40:52;;;;;;;11.73;6.20;;;11.80;59.10;;;;;;4971474;28;20590;-36
2023/12/17 12:43:21;;;;;;;12.63;6.35;;;11.80;59.10;;;;;;4968324;28;20059;-37
2023/12/17 12:45:50;;;;;;;14.87;6.20;;;11.80;59.10;;;;;;4970840;28;20496;-47
2023/12/17 12:48:20;;;;;;;12.48;6.35;;;11.80;59.10;;;;;;4971056;28;20099;-48